createdAt,value
2023-03-25T00:00:59.559Z,9.50
2023-03-25T00:03:29.535Z,9.50
2023-03-25T00:05:59.285Z,9.50
2023-03-25T00:08:28.286Z,9.50
2023-03-25T00:11:00.427Z,9.40
2023-03-25T00:13:31.834Z,9.40
2023-03-25T00:16:01.503Z,9.50
2023-03-25T00:18:33.698Z,9.40
2023-03-25T00:21:05.634Z,9.40
2023-03-25T00:23:34.110Z,9.40
2023-03-25T00:26:03.157Z,9.40
2023-03-25T00:28:33.717Z,9.40
2023-03-25T00:31:03.185Z,9.40
2023-03-25T00:33:31.748Z,9.40
2023-03-25T00:36:00.769Z,9.40
2023-03-25T00:38:35.452Z,9.40
2023-03-25T00:41:14.931Z,9.40
2023-03-25T00:43:43.081Z,9.40
2023-03-25T00:46:11.985Z,9.40
2023-03-25T00:48:41.471Z,9.30
2023-03-25T00:51:10.401Z,9.30
2023-03-25T00:53:40.287Z,9.30
2023-03-25T00:56:09.443Z,9.20
2023-03-25T00:58:37.890Z,9.20
2023-03-25T01:01:13.437Z,9.30
2023-03-25T01:03:43.951Z,9.20
2023-03-25T01:06:13.282Z,9.30
2023-03-25T01:08:45.260Z,9.30
2023-03-25T01:11:20.076Z,9.30
2023-03-25T01:13:48.425Z,9.30
2023-03-25T01:16:16.887Z,9.30
2023-03-25T01:18:45.074Z,9.20
2023-03-25T01:21:13.297Z,9.10
2023-03-25T01:23:42.975Z,9.10
2023-03-25T01:26:13.126Z,9.10
2023-03-25T01:28:42.106Z,9.10
2023-03-25T01:31:12.620Z,9.10
2023-03-25T01:33:40.969Z,9.10
2023-03-25T01:36:13.049Z,9.10
2023-03-25T01:38:43.476Z,9.20
2023-03-25T01:41:12.377Z,9.30
2023-03-25T01:43:41.267Z,9.30
2023-03-25T01:46:15.206Z,9.30
2023-03-25T01:48:46.923Z,9.20
2023-03-25T01:51:19.459Z,9.20
2023-03-25T01:53:50.014Z,9.30
2023-03-25T01:56:23.878Z,9.30
2023-03-25T01:58:54.124Z,9.30
2023-03-25T02:01:22.871Z,9.30
2023-03-25T02:03:53.223Z,9.30
2023-03-25T02:06:28.714Z,9.40
2023-03-25T02:09:00.118Z,9.40
2023-03-25T02:11:30.259Z,9.40
2023-03-25T02:14:01.293Z,9.40
2023-03-25T02:16:36.983Z,9.40
2023-03-25T02:19:41.122Z,9.40
2023-03-25T02:22:54.230Z,9.40
2023-03-25T02:25:46.330Z,9.40
2023-03-25T02:28:26.260Z,9.30
2023-03-25T02:31:15.935Z,9.30
2023-03-25T02:34:20.262Z,9.30
2023-03-25T02:37:21.796Z,9.30
2023-03-25T02:39:57.312Z,9.30
2023-03-25T02:42:32.089Z,9.20
2023-03-25T02:45:03.878Z,9.20
2023-03-25T02:47:37.485Z,9.20
2023-03-25T02:50:08.124Z,9.20
2023-03-25T02:52:40.292Z,9.20
2023-03-25T02:55:15.350Z,9.20
2023-03-25T02:57:47.632Z,9.10
2023-03-25T03:00:20.607Z,9.20
2023-03-25T03:02:59.416Z,9.20
2023-03-25T03:05:30.382Z,9.20
2023-03-25T03:08:19.067Z,9.30
2023-03-25T03:10:57.204Z,9.20
2023-03-25T03:13:35.268Z,9.10
2023-03-25T03:16:12.069Z,9.20
2023-03-25T03:18:48.463Z,9.10
2023-03-25T03:21:23.518Z,9.20
2023-03-25T03:23:58.680Z,9.20
2023-03-25T03:26:38.268Z,9.10
2023-03-25T03:29:14.208Z,9.10
2023-03-25T03:31:48.655Z,9.00
2023-03-25T03:34:43.133Z,9.10
2023-03-25T03:37:15.084Z,9.10
2023-03-25T03:39:44.807Z,9.10
2023-03-25T03:42:21.575Z,9.00
2023-03-25T03:44:54.016Z,9.00
2023-03-25T03:47:26.390Z,8.90
2023-03-25T03:49:59.181Z,8.90
2023-03-25T03:52:33.626Z,8.90
2023-03-25T03:55:06.668Z,8.80
2023-03-25T03:57:42.972Z,8.80
2023-03-25T04:00:17.177Z,8.80
2023-03-25T04:02:50.821Z,8.80
2023-03-25T04:05:23.427Z,8.80
2023-03-25T04:07:57.161Z,8.80
2023-03-25T04:10:34.934Z,8.70
2023-03-25T04:13:09.737Z,8.80
2023-03-25T04:15:38.469Z,8.70
2023-03-25T04:18:06.802Z,8.80
2023-03-25T04:20:36.930Z,8.80
2023-03-25T04:23:06.123Z,8.80
2023-03-25T04:25:34.260Z,8.70
2023-03-25T04:28:02.668Z,8.70
2023-03-25T04:30:32.190Z,8.70
2023-03-25T04:33:01.272Z,8.80
2023-03-25T04:35:33.114Z,8.70
2023-03-25T04:38:01.844Z,8.70
2023-03-25T04:40:30.143Z,8.80
2023-03-25T04:42:58.832Z,8.80
2023-03-25T04:45:28.815Z,8.80
2023-03-25T04:47:58.637Z,8.80
2023-03-25T04:50:28.903Z,8.80
2023-03-25T04:53:00.417Z,8.70
2023-03-25T04:55:30.323Z,8.70
2023-03-25T04:57:58.477Z,8.70
2023-03-25T05:00:27.197Z,8.80
2023-03-25T05:02:57.594Z,8.80
2023-03-25T05:05:27.316Z,8.80
2023-03-25T05:07:58.454Z,8.90
2023-03-25T05:10:29.744Z,8.90
2023-03-25T05:13:00.622Z,9.00
2023-03-25T05:15:30.532Z,9.00
2023-03-25T05:17:59.187Z,8.90
2023-03-25T05:20:29.511Z,9.00
2023-03-25T05:22:57.723Z,8.90
2023-03-25T05:25:25.977Z,8.90
2023-03-25T05:27:54.698Z,8.90
2023-03-25T05:30:23.001Z,9.00
2023-03-25T05:32:56.453Z,9.00
2023-03-25T05:35:26.940Z,9.00
2023-03-25T05:37:57.688Z,9.10
2023-03-25T05:40:26.387Z,9.00
2023-03-25T05:42:56.330Z,8.90
2023-03-25T05:45:25.179Z,8.80
2023-03-25T05:47:54.257Z,8.90
2023-03-25T05:50:23.309Z,8.90
2023-03-25T05:52:52.143Z,8.80
2023-03-25T05:55:23.647Z,8.80
2023-03-25T05:57:52.135Z,8.80
2023-03-25T06:00:23.565Z,8.80
2023-03-25T06:02:52.747Z,8.70
2023-03-25T06:05:23.957Z,8.80
2023-03-25T06:07:56.369Z,8.80
2023-03-25T06:10:26.522Z,8.80
2023-03-25T06:12:55.167Z,8.90
2023-03-25T06:15:29.411Z,9.00
2023-03-25T06:17:58.805Z,9.10
2023-03-25T06:20:27.661Z,9.00
2023-03-25T06:22:56.683Z,9.10
2023-03-25T06:25:26.851Z,9.10
2023-03-25T06:27:56.187Z,9.10
2023-03-25T06:30:24.635Z,9.10
2023-03-25T06:32:55.851Z,9.20
2023-03-25T06:35:24.197Z,9.40
2023-03-25T06:37:52.505Z,9.50
2023-03-25T06:40:22.443Z,9.50
2023-03-25T06:42:52.040Z,9.50
2023-03-25T06:45:20.613Z,9.50
2023-03-25T06:47:49.079Z,9.50
2023-03-25T06:50:17.698Z,9.50
2023-03-25T06:52:46.259Z,9.50
2023-03-25T06:55:14.612Z,9.50
2023-03-25T06:57:43.451Z,9.50
2023-03-25T07:00:14.258Z,9.50
2023-03-25T07:02:42.637Z,9.60
2023-03-25T07:05:11.206Z,9.70
2023-03-25T07:07:39.637Z,9.80
2023-03-25T07:10:08.806Z,9.90
2023-03-25T07:12:37.361Z,10.10
2023-03-25T07:15:06.455Z,10.10
2023-03-25T07:17:36.429Z,10.10
2023-03-25T07:20:05.682Z,10.20
2023-03-25T07:22:34.168Z,10.20
2023-03-25T07:25:02.400Z,10.30
2023-03-25T07:27:30.590Z,10.30
2023-03-25T07:29:58.979Z,10.30
2023-03-25T07:32:27.257Z,10.10
2023-03-25T07:34:56.862Z,10.20
2023-03-25T07:37:25.187Z,10.20
2023-03-25T07:39:53.459Z,10.20
2023-03-25T07:42:21.636Z,10.20
2023-03-25T07:44:50.081Z,10.20
2023-03-25T07:47:18.645Z,10.00
2023-03-25T07:49:47.804Z,9.90
2023-03-25T07:52:17.562Z,9.90
2023-03-25T07:54:46.085Z,10.00
2023-03-25T07:57:14.314Z,10.20
2023-03-25T07:59:42.536Z,10.30
2023-03-25T08:02:13.555Z,10.40
2023-03-25T08:04:41.773Z,10.40
2023-03-25T08:07:10.051Z,10.50
2023-03-25T08:09:39.776Z,10.70
2023-03-25T08:12:09.586Z,10.80
2023-03-25T08:14:37.950Z,10.90
2023-03-25T08:17:07.244Z,10.90
2023-03-25T08:19:37.000Z,10.90
2023-03-25T08:22:05.500Z,11.20
2023-03-25T08:24:33.986Z,11.30
2023-03-25T08:27:14.784Z,11.30
2023-03-25T08:29:45.045Z,11.40
2023-03-25T08:32:13.239Z,11.40
2023-03-25T08:34:41.472Z,11.50
2023-03-25T08:37:10.244Z,11.50
2023-03-25T08:39:40.063Z,11.60
2023-03-25T08:42:10.507Z,11.70
2023-03-25T08:44:38.778Z,11.80
2023-03-25T08:47:07.349Z,11.80
2023-03-25T08:49:35.715Z,11.70
2023-03-25T08:52:08.681Z,11.60
2023-03-25T08:54:37.148Z,11.40
2023-03-25T08:57:06.022Z,11.40
2023-03-25T08:59:35.802Z,11.30
2023-03-25T09:02:04.293Z,11.30
2023-03-25T09:04:32.765Z,11.30
2023-03-25T09:07:12.032Z,11.40
2023-03-25T09:09:40.974Z,11.30
2023-03-25T09:12:09.927Z,11.40
2023-03-25T09:14:39.796Z,11.30
2023-03-25T09:17:10.284Z,11.30
2023-03-25T09:19:38.882Z,11.40
2023-03-25T09:22:08.338Z,11.50
2023-03-25T09:24:36.804Z,11.50
2023-03-25T09:27:05.301Z,11.60
2023-03-25T09:29:33.706Z,11.70
2023-03-25T09:32:03.986Z,11.70
2023-03-25T09:34:32.325Z,11.70
2023-03-25T09:37:01.192Z,11.70
2023-03-25T09:39:29.907Z,11.70
2023-03-25T09:42:18.328Z,11.70
2023-03-25T09:44:56.843Z,11.70
2023-03-25T09:47:27.806Z,11.80
2023-03-25T09:50:01.334Z,12.00
2023-03-25T09:52:30.616Z,12.40
2023-03-25T09:55:03.824Z,12.70
2023-03-25T09:57:49.317Z,13.00
2023-03-25T10:00:24.233Z,13.30
2023-03-25T10:03:00.755Z,13.70
2023-03-25T10:05:50.075Z,13.80
2023-03-25T10:08:30.697Z,14.00
2023-03-25T10:11:06.126Z,14.10
2023-03-25T10:13:44.765Z,14.30
2023-03-25T10:16:27.716Z,14.50
2023-03-25T10:19:09.892Z,14.60
2023-03-25T10:21:45.652Z,14.60
2023-03-25T10:24:19.970Z,14.50
2023-03-25T10:26:53.299Z,14.50
2023-03-25T10:29:27.010Z,14.50
2023-03-25T10:31:55.957Z,14.70
2023-03-25T10:34:35.093Z,14.70
2023-03-25T10:37:08.247Z,14.90
2023-03-25T10:39:40.101Z,15.10
2023-03-25T10:42:20.481Z,14.90
2023-03-25T10:44:51.148Z,15.00
2023-03-25T10:47:22.059Z,15.10
2023-03-25T10:49:53.067Z,15.00
2023-03-25T10:52:21.751Z,14.90
2023-03-25T10:54:54.968Z,14.40
2023-03-25T10:57:28.107Z,13.80
2023-03-25T11:00:12.911Z,13.30
2023-03-25T11:02:41.592Z,12.80
2023-03-25T11:05:12.977Z,12.60
2023-03-25T11:07:44.989Z,12.30
2023-03-25T11:10:18.816Z,12.30
2023-03-25T11:12:48.565Z,12.10
2023-03-25T11:15:19.680Z,11.90
2023-03-25T11:17:49.449Z,11.70
2023-03-25T11:20:27.293Z,11.50
2023-03-25T11:22:58.912Z,11.40
2023-03-25T11:25:31.690Z,11.40
2023-03-25T11:28:03.253Z,11.20
2023-03-25T11:30:31.535Z,11.20
2023-03-25T11:33:04.125Z,11.20
2023-03-25T11:35:38.080Z,11.20
2023-03-25T11:38:16.934Z,11.20
2023-03-25T11:40:54.240Z,11.20
2023-03-25T11:43:24.801Z,11.50
2023-03-25T11:45:53.344Z,11.80
2023-03-25T11:48:24.462Z,12.30
2023-03-25T11:50:59.767Z,12.80
2023-03-25T11:53:31.229Z,13.10
2023-03-25T11:56:04.548Z,13.40
2023-03-25T11:58:37.144Z,13.40
2023-03-25T12:01:07.419Z,13.10
2023-03-25T12:03:36.982Z,13.20
2023-03-25T12:06:09.073Z,13.30
2023-03-25T12:08:45.118Z,13.40
2023-03-25T12:11:17.902Z,13.50
2023-03-25T12:13:56.309Z,13.40
2023-03-25T12:16:32.713Z,13.40
2023-03-25T12:19:16.402Z,13.30
2023-03-25T12:22:05.030Z,13.20
2023-03-25T12:24:54.506Z,13.20
2023-03-25T12:27:37.018Z,13.20
2023-03-25T12:30:17.166Z,13.10
2023-03-25T12:32:55.175Z,13.20
2023-03-25T12:35:32.305Z,13.20
2023-03-25T12:38:18.370Z,13.20
2023-03-25T12:40:56.909Z,13.10
2023-03-25T12:43:36.157Z,13.00
2023-03-25T12:46:17.141Z,13.10
2023-03-25T12:49:03.298Z,13.30
2023-03-25T12:51:41.525Z,13.60
2023-03-25T12:54:25.958Z,13.80
2023-03-25T12:57:03.778Z,13.70
2023-03-25T12:59:49.978Z,13.70
2023-03-25T13:02:32.895Z,13.60
2023-03-25T13:05:12.366Z,13.60
2023-03-25T13:07:45.346Z,13.90
2023-03-25T13:10:20.158Z,14.10
2023-03-25T13:12:52.148Z,14.30
2023-03-25T13:15:27.183Z,14.50
2023-03-25T13:17:58.862Z,14.30
2023-03-25T13:20:31.449Z,14.20
2023-03-25T13:23:04.720Z,14.10
2023-03-25T13:25:43.599Z,14.30
2023-03-25T13:28:14.513Z,14.40
2023-03-25T13:30:46.158Z,14.40
2023-03-25T13:33:17.439Z,14.60
2023-03-25T13:35:49.405Z,14.50
2023-03-25T13:38:25.811Z,14.40
2023-03-25T13:41:06.349Z,14.50
2023-03-25T13:43:39.565Z,14.60
2023-03-25T13:46:10.701Z,14.60
2023-03-25T13:48:43.736Z,14.60
2023-03-25T13:51:12.277Z,14.60
2023-03-25T13:53:46.548Z,14.50
2023-03-25T13:56:48.250Z,14.60
2023-03-25T13:59:40.263Z,14.50
2023-03-25T14:02:43.287Z,14.30
2023-03-25T14:05:52.676Z,14.20
2023-03-25T14:08:52.613Z,13.90
2023-03-25T14:11:24.966Z,13.60
2023-03-25T14:13:55.978Z,13.40
2023-03-25T14:16:29.816Z,13.10
2023-03-25T14:19:03.121Z,13.20
2023-03-25T14:21:41.734Z,13.30
2023-03-25T14:24:15.107Z,13.60
2023-03-25T14:26:47.622Z,13.60
2023-03-25T14:29:26.640Z,13.50
2023-03-25T14:32:04.716Z,13.40
2023-03-25T14:34:33.194Z,13.30
2023-03-25T14:37:30.838Z,13.10
2023-03-25T14:40:02.829Z,13.00
2023-03-25T14:42:42.449Z,13.10
2023-03-25T14:45:52.186Z,13.20
2023-03-25T14:48:32.390Z,13.60
2023-03-25T14:51:23.093Z,13.80
2023-03-25T14:53:57.926Z,13.80
2023-03-25T14:56:34.333Z,13.90
2023-03-25T14:59:10.498Z,14.00
2023-03-25T15:01:41.496Z,14.00
2023-03-25T15:04:15.630Z,14.10
2023-03-25T15:06:44.584Z,14.10
2023-03-25T15:09:15.724Z,13.90
2023-03-25T15:11:46.797Z,13.90
2023-03-25T15:14:19.586Z,13.90
2023-03-25T15:17:00.539Z,13.80
2023-03-25T15:19:30.582Z,13.80
2023-03-25T15:22:23.118Z,13.80
2023-03-25T15:24:56.551Z,13.90
2023-03-25T15:27:48.456Z,14.00
2023-03-25T15:30:34.901Z,14.00
2023-03-25T15:33:18.076Z,13.90
2023-03-25T15:36:15.411Z,13.80
2023-03-25T15:38:56.806Z,13.70
2023-03-25T15:41:52.608Z,13.60
2023-03-25T15:44:45.914Z,13.40
2023-03-25T15:47:36.166Z,13.30
2023-03-25T15:50:31.717Z,13.10
2023-03-25T15:53:41.793Z,13.00
2023-03-25T15:56:14.893Z,13.00
2023-03-25T15:58:52.314Z,12.90
2023-03-25T16:01:25.896Z,12.90
2023-03-25T16:03:59.318Z,12.90
2023-03-25T16:06:28.401Z,12.90
2023-03-25T16:08:59.655Z,13.00
2023-03-25T16:11:30.072Z,13.10
2023-03-25T16:14:08.497Z,13.10
2023-03-25T16:16:40.673Z,13.00
2023-03-25T16:19:13.070Z,13.00
2023-03-25T16:21:41.840Z,13.00
2023-03-25T16:24:13.866Z,13.00
2023-03-25T16:26:46.250Z,13.00
2023-03-25T16:29:20.544Z,12.90
2023-03-25T16:31:58.089Z,13.00
2023-03-25T16:34:26.642Z,13.10
2023-03-25T16:36:56.181Z,13.00
2023-03-25T16:39:26.331Z,13.00
2023-03-25T16:42:06.354Z,13.00
2023-03-25T16:44:35.721Z,12.90
2023-03-25T16:47:04.232Z,12.80
2023-03-25T16:49:34.323Z,12.80
2023-03-25T16:52:04.673Z,12.70
2023-03-25T16:54:38.684Z,12.70
2023-03-25T16:57:10.174Z,12.80
2023-03-25T16:59:39.799Z,12.80
2023-03-25T17:02:26.370Z,12.70
2023-03-25T17:04:58.645Z,12.70
2023-03-25T17:07:29.758Z,12.60
2023-03-25T17:10:00.753Z,12.50
2023-03-25T17:12:30.928Z,12.40
2023-03-25T17:15:06.961Z,12.30
2023-03-25T17:17:41.638Z,12.30
2023-03-25T17:20:19.118Z,12.30
2023-03-25T17:23:00.768Z,12.30
2023-03-25T17:25:32.381Z,12.30
2023-03-25T17:28:08.436Z,12.30
2023-03-25T17:30:44.568Z,12.30
2023-03-25T17:33:16.869Z,12.40
2023-03-25T17:35:47.025Z,12.30
2023-03-25T17:38:25.513Z,12.30
2023-03-25T17:41:03.260Z,12.20
2023-03-25T17:43:35.200Z,12.20
2023-03-25T17:46:05.926Z,12.10
2023-03-25T17:48:34.324Z,12.10
2023-03-25T17:51:02.801Z,12.00
2023-03-25T17:53:31.457Z,11.90
2023-03-25T17:56:03.504Z,12.00
2023-03-25T17:58:33.838Z,12.00
2023-03-25T18:01:02.701Z,11.90
2023-03-25T18:03:33.257Z,11.90
2023-03-25T18:06:01.547Z,11.80
2023-03-25T18:08:30.421Z,11.70
2023-03-25T18:11:00.035Z,11.70
2023-03-25T18:13:28.450Z,11.70
2023-03-25T18:15:58.067Z,11.70
2023-03-25T18:18:27.999Z,11.60
2023-03-25T18:20:57.086Z,11.50
2023-03-25T18:23:25.423Z,11.50
2023-03-25T18:25:53.820Z,11.50
2023-03-25T18:28:21.963Z,11.50
2023-03-25T18:30:54.663Z,11.30
2023-03-25T18:33:24.810Z,11.30
2023-03-25T18:35:53.793Z,11.20
2023-03-25T18:38:24.779Z,11.20
2023-03-25T18:40:54.228Z,11.10
2023-03-25T18:43:23.191Z,11.10
2023-03-25T18:45:52.085Z,11.10
2023-03-25T18:48:23.278Z,11.10
2023-03-25T18:50:55.336Z,11.10
2023-03-25T18:53:25.277Z,11.10
2023-03-25T18:55:55.967Z,11.10
2023-03-25T18:58:26.133Z,11.10
2023-03-25T19:00:55.344Z,11.10
2023-03-25T19:03:31.775Z,11.00
2023-03-25T19:06:01.058Z,11.00
2023-03-25T19:08:29.472Z,11.00
2023-03-25T19:11:08.075Z,11.00
2023-03-25T19:13:45.124Z,10.90
2023-03-25T19:16:13.451Z,10.90
2023-03-25T19:18:43.042Z,10.90
2023-03-25T19:21:15.245Z,10.90
2023-03-25T19:23:43.462Z,10.90
2023-03-25T19:26:12.257Z,10.90
2023-03-25T19:28:41.163Z,10.90
2023-03-25T19:31:09.798Z,10.80
2023-03-25T19:33:38.206Z,10.80
2023-03-25T19:36:23.418Z,10.80
2023-03-25T19:38:53.255Z,10.80
2023-03-25T19:41:21.475Z,10.70
2023-03-25T19:43:49.812Z,10.70
2023-03-25T19:46:19.322Z,10.70
2023-03-25T19:48:47.628Z,10.70
2023-03-25T19:51:17.601Z,10.70
2023-03-25T19:53:46.038Z,10.60
2023-03-25T19:56:14.227Z,10.60
2023-03-25T19:58:42.816Z,10.60
2023-03-25T20:01:14.515Z,10.60
2023-03-25T20:03:43.144Z,10.60
2023-03-25T20:06:12.007Z,10.50
2023-03-25T20:08:41.920Z,10.50
2023-03-25T20:11:12.074Z,10.50
2023-03-25T20:13:40.565Z,10.50
2023-03-25T20:16:09.944Z,10.40
2023-03-25T20:18:38.825Z,10.40
2023-03-25T20:21:08.864Z,10.50
2023-03-25T20:23:37.542Z,10.50
2023-03-25T20:26:07.974Z,10.50
2023-03-25T20:28:37.312Z,10.50
2023-03-25T20:31:18.472Z,10.50
2023-03-25T20:33:47.639Z,10.50
2023-03-25T20:36:16.059Z,10.50
2023-03-25T20:38:56.078Z,10.50
2023-03-25T20:41:27.261Z,10.40
2023-03-25T20:43:55.424Z,10.40
2023-03-25T20:46:28.606Z,10.40
2023-03-25T20:48:57.269Z,10.40
2023-03-25T20:51:26.463Z,10.30
2023-03-25T20:53:55.032Z,10.30
2023-03-25T20:56:23.230Z,10.30
2023-03-25T20:58:53.248Z,10.30
2023-03-25T21:01:22.339Z,10.20
2023-03-25T21:03:51.783Z,10.20
2023-03-25T21:06:23.746Z,10.20
2023-03-25T21:08:54.910Z,10.10
2023-03-25T21:11:23.344Z,10.00
2023-03-25T21:13:53.005Z,10.00
2023-03-25T21:16:21.557Z,10.00
2023-03-25T21:18:50.393Z,9.90
2023-03-25T21:21:19.924Z,10.00
2023-03-25T21:23:49.545Z,10.00
2023-03-25T21:26:17.764Z,9.90
2023-03-25T21:28:46.002Z,9.80
2023-03-25T21:31:21.181Z,9.70
2023-03-25T21:33:51.321Z,9.80
2023-03-25T21:36:22.125Z,9.80
2023-03-25T21:38:52.745Z,9.80
2023-03-25T21:41:21.111Z,9.70
2023-03-25T21:43:49.380Z,9.80
2023-03-25T21:46:19.699Z,9.80
2023-03-25T21:48:48.589Z,9.80
2023-03-25T21:51:16.763Z,9.80
2023-03-25T21:53:46.629Z,9.80
2023-03-25T21:56:17.486Z,9.70
2023-03-25T21:58:47.028Z,9.70
2023-03-25T22:01:17.882Z,9.70
2023-03-25T22:03:48.072Z,9.70
2023-03-25T22:06:19.247Z,9.80
2023-03-25T22:08:47.443Z,9.80
2023-03-25T22:11:18.050Z,9.70
2023-03-25T22:13:46.970Z,9.70
2023-03-25T22:16:16.745Z,9.80
2023-03-25T22:18:45.570Z,9.80
2023-03-25T22:21:17.806Z,9.90
2023-03-25T22:23:47.830Z,9.90
2023-03-25T22:26:17.557Z,9.90
2023-03-25T22:28:47.713Z,9.90
2023-03-25T22:31:18.590Z,9.90
2023-03-25T22:33:49.246Z,9.90
2023-03-25T22:36:19.030Z,9.90
2023-03-25T22:38:51.544Z,9.90
2023-03-25T22:41:20.836Z,10.00
2023-03-25T22:43:49.616Z,9.90
2023-03-25T22:46:18.425Z,10.00
2023-03-25T22:48:47.083Z,10.00
2023-03-25T22:51:17.324Z,10.00
2023-03-25T22:53:47.824Z,10.00
2023-03-25T22:56:16.221Z,10.00
2023-03-25T22:58:44.448Z,10.10
2023-03-25T23:01:20.531Z,10.20
2023-03-25T23:03:48.983Z,10.30
2023-03-25T23:06:17.257Z,10.40
2023-03-25T23:08:47.539Z,10.40
2023-03-25T23:11:18.122Z,10.30
2023-03-25T23:13:48.967Z,10.40
2023-03-25T23:16:19.954Z,10.40
2023-03-25T23:18:48.627Z,10.30
2023-03-25T23:21:20.864Z,10.30
2023-03-25T23:23:52.829Z,10.30
2023-03-25T23:26:24.924Z,10.20
2023-03-25T23:28:54.257Z,10.30
2023-03-25T23:31:28.700Z,10.30
2023-03-25T23:33:59.194Z,10.30
2023-03-25T23:36:28.681Z,10.30
2023-03-25T23:38:59.157Z,10.30
2023-03-25T23:41:29.222Z,10.30
2023-03-25T23:43:57.486Z,10.20
2023-03-25T23:46:27.455Z,10.20
2023-03-25T23:49:01.964Z,10.30
2023-03-25T23:51:33.314Z,10.40
2023-03-25T23:54:03.225Z,10.40
2023-03-25T23:56:31.711Z,10.40
2023-03-25T23:59:00.897Z,10.40
